Time;durP1;ratioP1;P1;durP2;ratioP2;P2;SDS_P1;SDS_P2;PMS_P1;PMS_P2;Temp;Humidity;BMP_temperature;BMP_pressure;BME280_temperature;BME280_humidity;BME280_pressure;Samples;Min_cycle;Max_cycle;Signal;HPM_P1;HPM_P2
2021/03/26 00:02:26;;;;;;;31.47;21.70;;;;;6.90;101474.00;;;;9574157;31;20266;-75
2021/03/26 00:07:27;;;;;;;27.20;20.30;;;;;6.80;101468.00;;;;9573658;31;20698;-75
2021/03/26 00:12:29;;;;;;;31.40;19.13;;;;;6.80;101470.00;;;;9601507;30;20205;-75
2021/03/26 00:17:30;;;;;;;31.70;21.43;;;;;6.80;101471.00;;;;9601574;30;20214;-75
2021/03/26 00:22:32;;;;;;;31.10;20.93;;;;;6.80;101463.00;;;;9610130;30;20247;-75
2021/03/26 00:27:33;;;;;;;35.20;23.00;;;;;6.70;101458.00;;;;9600520;30;20770;-76
2021/03/26 00:32:35;;;;;;;32.07;22.30;;;;;6.70;101458.00;;;;9601016;30;20205;-76
2021/03/26 00:37:38;;;;;;;37.80;23.37;;;;;6.60;101458.00;;;;9600485;30;20289;-76
2021/03/26 00:42:39;;;;;;;35.57;22.40;;;;;6.60;101446.00;;;;9600540;30;20631;-76
2021/03/26 00:47:42;;;;;;;38.50;24.50;;;;;6.60;101437.00;;;;9586334;31;20234;-76
2021/03/26 00:52:47;;;;;;;33.83;21.80;;;;;6.70;101446.00;;;;9588844;30;20208;-76
2021/03/26 00:57:48;;;;;;;39.87;24.43;;;;;6.70;101433.00;;;;9641842;30;20616;-76
2021/03/26 01:02:50;;;;;;;37.23;23.83;;;;;6.70;101430.00;;;;9628675;30;20217;-76
2021/03/26 01:07:52;;;;;;;33.13;23.60;;;;;6.50;101430.00;;;;9620127;30;20229;-76
2021/03/26 01:12:55;;;;;;;36.97;24.47;;;;;6.40;101433.00;;;;9606045;30;20670;-76
2021/03/26 01:17:59;;;;;;;40.10;24.83;;;;;6.30;101424.00;;;;9634326;30;20690;-76
2021/03/26 01:23:06;;;;;;;39.37;23.33;;;;;6.20;101421.00;;;;9618690;30;20285;-76
2021/03/26 01:28:13;;;;;;;37.00;22.97;;;;;6.20;101411.00;;;;9578080;31;20284;-76
2021/03/26 01:33:16;;;;;;;41.53;24.60;;;;;6.20;101413.00;;;;9557014;31;20261;-76
2021/03/26 01:38:19;;;;;;;39.07;25.73;;;;;6.10;101399.00;;;;9584028;31;20578;-76
2021/03/26 01:43:38;;;;;;;41.50;24.83;;;;;6.10;101393.00;;;;9597264;30;20722;-75
2021/03/26 01:48:42;;;;;;;39.90;24.83;;;;;6.20;101381.00;;;;9583792;30;20261;-76
2021/03/26 01:53:45;;;;;;;48.83;26.83;;;;;6.30;101374.00;;;;9604675;30;20216;-76
2021/03/26 01:58:46;;;;;;;39.00;23.97;;;;;6.20;101363.00;;;;9604348;30;20229;-76
2021/03/26 02:03:51;;;;;;;33.30;21.87;;;;;6.20;101360.00;;;;9604744;30;20213;-76
2021/03/26 02:09:19;;;;;;;37.13;21.77;;;;;6.20;101352.00;;;;9604197;30;20217;-77
2021/03/26 02:14:25;;;;;;;35.83;22.70;;;;;6.20;101345.00;;;;9589967;30;20315;-76
2021/03/26 02:19:29;;;;;;;37.87;22.97;;;;;6.20;101350.00;;;;9589950;30;20678;-77
2021/03/26 02:24:31;;;;;;;39.30;21.80;;;;;6.20;101331.00;;;;9590144;30;20272;-76
2021/03/26 02:29:36;;;;;;;35.90;21.23;;;;;6.20;101338.00;;;;9617766;30;20225;-76
2021/03/26 02:35:11;;;;;;;32.60;20.37;;;;;6.20;101339.00;;;;9590308;30;20288;-76
2021/03/26 02:40:44;;;;;;;33.67;20.27;;;;;6.30;101334.00;;;;9603753;30;20215;-76
2021/03/26 02:46:03;;;;;;;34.70;20.67;;;;;6.40;101328.00;;;;9616948;30;20216;-76
2021/03/26 02:51:18;;;;;;;31.80;19.77;;;;;6.40;101325.00;;;;9631014;30;20299;-76
2021/03/26 02:56:38;;;;;;;30.50;19.47;;;;;6.40;101327.00;;;;9601718;30;20204;-76
2021/03/26 03:01:51;;;;;;;32.17;20.27;;;;;6.40;101325.00;;;;9631430;30;20680;-76
2021/03/26 03:07:28;;;;;;;31.87;19.60;;;;;6.40;101324.00;;;;9602597;30;20319;-76
2021/03/26 03:12:55;;;;;;;33.37;19.33;;;;;6.40;101320.00;;;;9590024;30;20240;-76
2021/03/26 03:18:09;;;;;;;29.47;18.60;;;;;6.30;101320.00;;;;9616506;30;20205;-77
2021/03/26 03:23:33;;;;;;;32.77;19.93;;;;;6.30;101307.00;;;;9602472;30;20272;-76
2021/03/26 03:29:01;;;;;;;31.97;20.20;;;;;6.20;101309.00;;;;9629498;30;20215;-76
2021/03/26 03:34:42;;;;;;;31.97;20.10;;;;;6.20;101310.00;;;;9606811;30;20234;-76
2021/03/26 03:40:16;;;;;;;33.50;21.13;;;;;6.20;101309.00;;;;9581582;31;20300;-76
2021/03/26 03:45:26;;;;;;;36.10;20.70;;;;;6.10;101308.00;;;;9590372;30;20232;-76
2021/03/26 03:50:42;;;;;;;36.97;21.77;;;;;6.00;101305.00;;;;9606956;30;20221;-76
2021/03/26 03:55:54;;;;;;;37.57;22.23;;;;;6.00;101306.00;;;;9622304;30;20299;-76
2021/03/26 04:01:15;;;;;;;37.97;22.00;;;;;6.00;101300.00;;;;9608517;30;20288;-76
2021/03/26 04:06:24;;;;;;;41.33;23.47;;;;;6.00;101293.00;;;;9625239;30;20217;-78
2021/03/26 04:11:50;;;;;;;42.63;23.80;;;;;6.00;101284.00;;;;9612633;30;20208;-78
2021/03/26 04:17:19;;;;;;;35.47;20.90;;;;;6.00;101272.00;;;;9600682;30;20677;-78
2021/03/26 04:22:27;;;;;;;41.27;22.57;;;;;6.10;101280.00;;;;9597900;30;20228;-78
2021/03/26 04:27:45;;;;;;;38.13;22.43;;;;;6.00;101271.00;;;;9572103;30;20315;-78
2021/03/26 04:32:57;;;;;;;38.47;22.60;;;;;5.90;101270.00;;;;9598616;30;20201;-78
2021/03/26 04:38:14;;;;;;;39.00;22.30;;;;;5.90;101265.00;;;;9610605;30;20209;-78
2021/03/26 04:43:31;;;;;;;37.50;20.53;;;;;5.90;101263.00;;;;9625252;30;20213;-78
2021/03/26 04:48:52;;;;;;;37.73;21.67;;;;;5.90;101260.00;;;;9622372;30;20229;-77
2021/03/26 04:54:39;;;;;;;40.07;22.13;;;;;5.90;101259.00;;;;9606914;30;20217;-77
2021/03/26 05:00:03;;;;;;;38.10;20.83;;;;;5.90;101256.00;;;;9608178;30;20640;-77
2021/03/26 05:05:26;;;;;;;37.43;21.73;;;;;5.90;101257.00;;;;9606648;30;20212;-77
2021/03/26 05:10:50;;;;;;;34.83;21.87;;;;;6.00;101249.00;;;;9606487;30;20234;-77
2021/03/26 05:16:23;;;;;;;36.13;21.87;;;;;5.90;101252.00;;;;9606566;30;20205;-77
2021/03/26 05:21:48;;;;;;;40.00;21.83;;;;;6.00;101242.00;;;;9586450;30;20224;-77
2021/03/26 05:27:12;;;;;;;38.10;22.63;;;;;5.90;101243.00;;;;9605665;30;20229;-77
2021/03/26 05:32:45;;;;;;;38.20;22.03;;;;;6.00;101238.00;;;;9607682;30;20196;-77
2021/03/26 05:38:27;;;;;;;35.70;21.23;;;;;6.00;101234.00;;;;9591157;30;20211;-77
2021/03/26 05:44:14;;;;;;;37.83;22.07;;;;;6.00;101228.00;;;;9607298;30;20291;-77
2021/03/26 05:49:36;;;;;;;33.70;20.77;;;;;6.10;101224.00;;;;9593723;30;20217;-77
2021/03/26 05:54:57;;;;;;;36.03;20.53;;;;;6.20;101222.00;;;;9583708;31;20209;-77
2021/03/26 06:00:34;;;;;;;36.27;21.23;;;;;6.40;101224.00;;;;9583734;30;20714;-77
2021/03/26 06:06:36;;;;;;;36.93;21.30;;;;;6.60;101219.00;;;;9584617;31;20265;-77
2021/03/26 06:12:14;;;;;;;34.70;21.13;;;;;6.80;101220.00;;;;9585905;31;20671;-78
2021/03/26 06:18:29;;;;;;;35.07;18.17;;;;;7.10;101222.00;;;;9571908;31;20206;-77
2021/03/26 06:24:11;;;;;;;32.20;19.30;;;;;7.30;101225.00;;;;9492713;31;20212;-77
2021/03/26 06:29:53;;;;;;;35.43;19.17;;;;;7.60;101216.00;;;;9572529;31;20254;-77
2021/03/26 06:35:01;;;;;;;28.90;18.23;;;;;7.80;101212.00;;;;9571452;31;20607;-78
2021/03/26 06:40:20;;;;;;;27.90;17.80;;;;;8.00;101200.00;;;;9584183;31;20268;-77
2021/03/26 06:45:48;;;;;;;29.17;19.17;;;;;8.30;101207.00;;;;9587236;30;20198;-77
2021/03/26 06:51:07;;;;;;;24.33;17.20;;;;;8.70;101199.00;;;;9619291;30;20690;-78
2021/03/26 06:56:35;;;;;;;25.53;17.00;;;;;9.10;101201.00;;;;9606482;30;20255;-77
2021/03/26 07:02:27;;;;;;;27.63;17.17;;;;;9.40;101194.00;;;;9632919;30;20216;-77
2021/03/26 07:08:14;;;;;;;25.67;16.73;;;;;10.40;101198.00;;;;9563902;30;20240;-77
2021/03/26 07:13:21;;;;;;;23.30;15.57;;;;;10.30;101212.00;;;;9618792;30;20208;-76
2021/03/26 07:18:51;;;;;;;24.73;15.10;;;;;11.00;101210.00;;;;9575737;30;20210;-76
2021/03/26 07:23:56;;;;;;;22.17;14.00;;;;;10.80;101207.00;;;;9620356;30;20217;-76
2021/03/26 07:29:34;;;;;;;25.70;15.20;;;;;10.60;101212.00;;;;9623568;30;20232;-76
2021/03/26 07:35:02;;;;;;;19.30;13.97;;;;;10.40;101226.00;;;;9623054;30;20216;-76
2021/03/26 07:40:22;;;;;;;20.50;13.70;;;;;10.30;101221.00;;;;9623184;30;20202;-76
2021/03/26 07:45:44;;;;;;;19.70;13.47;;;;;10.40;101216.00;;;;9623374;30;20260;-77
2021/03/26 07:51:12;;;;;;;25.87;14.20;;;;;10.40;101216.00;;;;9622687;30;20223;-76
2021/03/26 07:56:41;;;;;;;21.17;13.47;;;;;10.50;101205.00;;;;9636491;30;20217;-76
2021/03/26 08:02:20;;;;;;;19.83;12.60;;;;;10.70;101200.00;;;;9622145;30;20209;-76
2021/03/26 08:08:04;;;;;;;17.97;13.20;;;;;10.90;101213.00;;;;9610218;30;20327;-76
2021/03/26 08:13:34;;;;;;;22.57;13.67;;;;;11.10;101211.00;;;;9594366;30;20233;-76
2021/03/26 08:18:54;;;;;;;19.20;13.13;;;;;11.30;101206.00;;;;9593923;30;20204;-77
2021/03/26 08:24:26;;;;;;;27.00;15.57;;;;;11.50;101213.00;;;;9594214;30;20216;-76
2021/03/26 08:30:05;;;;;;;19.10;11.20;;;;;11.80;101200.00;;;;9607953;30;20221;-76
2021/03/26 08:35:12;;;;;;;17.63;10.50;;;;;12.10;101206.00;;;;9579525;30;20207;-76
2021/03/26 08:40:21;;;;;;;16.37;9.63;;;;;12.40;101202.00;;;;9606907;30;20214;-76
2021/03/26 08:45:31;;;;;;;16.30;7.17;;;;;12.60;101205.00;;;;9621245;30;20539;-76
2021/03/26 08:50:49;;;;;;;9.50;6.77;;;;;12.80;101210.00;;;;9619974;30;20225;-76
2021/03/26 08:56:13;;;;;;;16.47;7.60;;;;;13.00;101202.00;;;;9591016;30;20205;-76
2021/03/26 09:01:43;;;;;;;12.90;6.70;;;;;13.40;101195.00;;;;9584706;30;20294;-76
2021/03/26 09:07:23;;;;;;;12.23;6.47;;;;;13.80;101184.00;;;;9570208;31;20695;-76
2021/03/26 09:13:02;;;;;;;11.27;7.00;;;;;14.10;101186.00;;;;9590349;30;20209;-76
2021/03/26 09:18:11;;;;;;;11.27;6.67;;;;;14.50;101198.00;;;;9574025;30;20228;-76
2021/03/26 09:23:16;;;;;;;8.27;4.97;;;;;14.90;101188.00;;;;9618166;30;20264;-75
2021/03/26 09:28:29;;;;;;;7.83;4.67;;;;;15.10;101178.00;;;;9614761;30;20608;-76
2021/03/26 09:33:30;;;;;;;9.50;5.03;;;;;15.20;101184.00;;;;9601232;30;20229;-76
2021/03/26 09:39:08;;;;;;;7.50;3.80;;;;;15.50;101191.00;;;;9604714;30;20245;-75
2021/03/26 09:44:32;;;;;;;6.50;3.30;;;;;15.70;101185.00;;;;9594495;30;20208;-75
2021/03/26 09:49:38;;;;;;;6.60;3.83;;;;;16.00;101174.00;;;;9632895;30;20225;-75
2021/03/26 09:54:43;;;;;;;6.77;3.53;;;;;16.10;101172.00;;;;9615664;30;20212;-75
2021/03/26 10:00:08;;;;;;;8.03;3.23;;;;;16.10;101169.00;;;;9618195;30;20327;-75
2021/03/26 10:05:30;;;;;;;9.10;3.70;;;;;16.70;101160.00;;;;9619572;30;20296;-75
2021/03/26 10:16:04;;;;;;;5.60;3.20;;;;;16.30;101152.00;;;;9617892;30;20202;-75
2021/03/26 10:21:28;;;;;;;8.07;3.53;;;;;16.60;101148.00;;;;9593522;30;20273;-75
2021/03/26 10:26:44;;;;;;;7.47;3.63;;;;;16.90;101120.00;;;;9620695;30;20213;-75
2021/03/26 10:31:48;;;;;;;6.60;4.10;;;;;17.00;101120.00;;;;9614961;30;20204;-75
2021/03/26 10:37:01;;;;;;;6.75;3.45;;;;;17.20;101118.00;;;;9617714;30;20206;-75
2021/03/26 10:42:09;;;;;;;6.60;2.53;;;;;17.40;101120.00;;;;9603921;30;20209;-75
2021/03/26 10:47:32;;;;;;;5.97;2.10;;;;;17.50;101117.00;;;;9605936;30;20571;-76
2021/03/26 10:52:40;;;;;;;2.17;1.43;;;;;16.90;101101.00;;;;9583054;30;20247;-76
2021/03/26 10:58:06;;;;;;;2.50;0.95;;;;;17.40;101091.00;;;;9636573;30;20365;-75
2021/03/26 11:03:10;;;;;;;3.08;1.30;;;;;17.90;101078.00;;;;9608209;30;20209;-76
2021/03/26 11:08:27;;;;;;;2.53;1.40;;;;;17.90;101075.00;;;;9636847;30;20221;-76
2021/03/26 11:13:50;;;;;;;2.00;1.30;;;;;18.10;101089.00;;;;9623040;30;20217;-75
2021/03/26 11:18:58;;;;;;;5.68;1.80;;;;;18.20;101082.00;;;;9615331;30;20925;-76
2021/03/26 11:24:05;;;;;;;5.47;1.50;;;;;17.90;101078.00;;;;9600229;30;20216;-76
2021/03/26 11:29:18;;;;;;;4.55;1.85;;;;;17.70;101073.00;;;;9629017;30;20696;-76
2021/03/26 11:34:33;;;;;;;3.23;1.73;;;;;16.90;101073.00;;;;9598183;30;20245;-76
2021/03/26 11:40:09;;;;;;;2.83;1.83;;;;;17.00;101067.00;;;;9616986;30;20208;-76
2021/03/26 11:45:16;;;;;;;2.87;1.30;;;;;16.70;101071.00;;;;9607131;30;20209;-76
2021/03/26 11:50:33;;;;;;;3.53;1.77;;;;;16.80;101047.00;;;;9615930;30;20248;-76
2021/03/26 11:55:38;;;;;;;3.93;1.70;;;;;16.60;101053.00;;;;9607475;30;20280;-76
2021/03/26 12:00:53;;;;;;;5.47;2.27;;;;;17.30;101048.00;;;;9596430;30;20241;-76
2021/03/26 12:06:22;;;;;;;4.17;2.00;;;;;17.50;101034.00;;;;9632011;30;20209;-76
2021/03/26 12:11:55;;;;;;;3.40;1.90;;;;;17.20;101040.00;;;;9632185;30;20260;-76
2021/03/26 12:17:03;;;;;;;5.10;2.20;;;;;17.90;101034.00;;;;9625717;30;20208;-76
2021/03/26 12:22:30;;;;;;;4.03;1.95;;;;;17.30;101026.00;;;;9619709;30;20264;-76
2021/03/26 12:27:42;;;;;;;3.28;1.88;;;;;18.20;101025.00;;;;9617258;30;20221;-76
2021/03/26 12:32:46;;;;;;;5.18;2.60;;;;;17.20;101027.00;;;;9624575;30;20681;-76
2021/03/26 12:37:48;;;;;;;6.83;2.90;;;;;18.70;101013.00;;;;9620615;30;20543;-76
2021/03/26 12:42:57;;;;;;;6.95;2.63;;;;;17.50;101018.00;;;;9651125;30;20208;-76
2021/03/26 12:48:16;;;;;;;2.30;2.10;;;;;18.10;101014.00;;;;9618128;30;20276;-76
2021/03/26 12:53:35;;;;;;;8.50;2.75;;;;;17.70;101003.00;;;;9646319;30;20205;-76
2021/03/26 12:59:04;;;;;;;5.70;2.95;;;;;17.60;100994.00;;;;9630363;30;20288;-76
2021/03/26 13:04:24;;;;;;;5.50;2.92;;;;;18.40;101002.00;;;;9629328;30;20205;-76
2021/03/26 13:10:10;;;;;;;2.63;2.30;;;;;17.70;100985.00;;;;9620202;30;20225;-76
2021/03/26 13:15:23;;;;;;;3.17;2.13;;;;;18.10;100969.00;;;;9584617;30;20213;-75
2021/03/26 13:20:25;;;;;;;4.20;1.90;;;;;17.60;100969.00;;;;9621174;30;20205;-77
2021/03/26 13:25:32;;;;;;;2.17;1.70;;;;;17.70;100961.00;;;;9600841;30;20618;-76
2021/03/26 13:30:57;;;;;;;2.40;1.60;;;;;18.20;100953.00;;;;9607573;30;20222;-76
2021/03/26 13:36:19;;;;;;;3.13;1.73;;;;;18.20;100945.00;;;;9616823;30;20265;-76
2021/03/26 13:41:41;;;;;;;2.42;1.65;;;;;18.90;100919.00;;;;9618758;30;20205;-76
2021/03/26 13:46:45;;;;;;;4.07;2.08;;;;;18.80;100918.00;;;;9593091;30;20212;-76
2021/03/26 13:51:50;;;;;;;4.25;1.70;;;;;20.80;100918.00;;;;9620418;30;20245;-76
2021/03/26 13:56:54;;;;;;;4.93;1.20;;;;;19.60;100901.00;;;;9625669;30;20658;-76
2021/03/26 14:01:59;;;;;;;5.47;1.80;;;;;18.70;100908.00;;;;9629399;30;20220;-76
2021/03/26 14:07:10;;;;;;;5.53;2.20;;;;;19.50;100900.00;;;;9636739;30;20344;-76
2021/03/26 14:12:32;;;;;;;3.25;2.13;;;;;20.70;100878.00;;;;9621915;30;20221;-76
2021/03/26 14:17:40;;;;;;;3.17;2.00;;;;;22.90;100878.00;;;;9619556;30;20200;-76
2021/03/26 14:23:00;;;;;;;5.38;2.47;;;;;20.90;100860.00;;;;9629484;30;20209;-77
2021/03/26 14:28:20;;;;;;;3.78;2.47;;;;;21.80;100882.00;;;;9607075;30;20681;-76
2021/03/26 14:33:38;;;;;;;3.38;1.88;;;;;18.50;100869.00;;;;9620448;30;20205;-76
2021/03/26 14:38:44;;;;;;;5.15;1.92;;;;;19.70;100866.00;;;;9618574;30;20244;-76
2021/03/26 14:43:49;;;;;;;6.40;2.30;;;;;19.00;100868.00;;;;9626778;30;20220;-76
2021/03/26 14:48:55;;;;;;;3.03;2.50;;;;;17.80;100865.00;;;;9587912;30;20299;-77
2021/03/26 14:54:32;;;;;;;2.92;1.85;;;;;17.80;100852.00;;;;9617067;30;20276;-77
2021/03/26 15:00:11;;;;;;;5.35;2.70;;;;;16.90;100855.00;;;;9620024;30;20258;-77
2021/03/26 15:05:22;;;;;;;3.30;2.30;;;;;17.00;100852.00;;;;9616912;30;20213;-77
2021/03/26 15:10:30;;;;;;;4.07;2.33;;;;;16.40;100847.00;;;;9628873;30;20515;-77
2021/03/26 15:15:42;;;;;;;6.10;2.90;;;;;15.80;100849.00;;;;9617281;30;20295;-77
2021/03/26 15:20:44;;;;;;;4.87;2.60;;;;;15.40;100837.00;;;;9607717;30;20238;-77
2021/03/26 15:25:57;;;;;;;3.53;2.30;;;;;15.10;100846.00;;;;9596363;30;20201;-77
2021/03/26 15:31:31;;;;;;;3.73;2.60;;;;;15.10;100839.00;;;;9601608;30;20280;-77
2021/03/26 15:36:57;;;;;;;5.00;2.80;;;;;15.00;100827.00;;;;9616445;30;20248;-77
2021/03/26 15:42:32;;;;;;;3.50;2.67;;;;;14.90;100830.00;;;;9616796;30;20247;-77
2021/03/26 15:47:40;;;;;;;3.40;3.10;;;;;14.90;100821.00;;;;9624325;30;20233;-77
2021/03/26 15:52:50;;;;;;;4.90;3.73;;;;;15.00;100821.00;;;;9624108;30;20213;-77
2021/03/26 15:57:54;;;;;;;4.77;3.60;;;;;15.00;100815.00;;;;9623949;30;20255;-77
2021/03/26 16:03:05;;;;;;;4.97;4.20;;;;;15.00;100805.00;;;;9623096;30;20674;-77
2021/03/26 16:08:22;;;;;;;5.63;3.53;;;;;14.90;100801.00;;;;9623263;30;20220;-76
2021/03/26 16:13:29;;;;;;;5.37;3.63;;;;;14.90;100806.00;;;;9580646;30;20255;-77
2021/03/26 16:18:55;;;;;;;6.10;4.20;;;;;14.50;100798.00;;;;9630917;30;20205;-76
2021/03/26 16:24:04;;;;;;;5.10;3.77;;;;;14.30;100803.00;;;;9647777;30;20208;-77
2021/03/26 16:29:46;;;;;;;5.00;4.00;;;;;14.00;100800.00;;;;9628895;30;20359;-77
2021/03/26 16:35:20;;;;;;;5.83;4.10;;;;;13.90;100795.00;;;;9643106;30;20689;-77
2021/03/26 16:40:48;;;;;;;7.80;4.57;;;;;13.80;100788.00;;;;9606353;30;20232;-77
2021/03/26 16:46:27;;;;;;;8.63;4.83;;;;;13.60;100785.00;;;;9608240;30;20186;-77
2021/03/26 16:52:03;;;;;;;6.77;4.73;;;;;13.40;100786.00;;;;9607235;30;21206;-77
2021/03/26 16:57:38;;;;;;;7.97;4.60;;;;;13.40;100777.00;;;;9606884;30;20256;-77
2021/03/26 17:03:01;;;;;;;7.83;4.47;;;;;13.40;100777.00;;;;9635079;30;20246;-77
2021/03/26 17:08:13;;;;;;;7.90;4.80;;;;;13.30;100769.00;;;;9633933;30;20256;-76
2021/03/26 17:13:38;;;;;;;5.33;3.93;;;;;13.20;100756.00;;;;9600058;30;20207;-77
2021/03/26 17:18:54;;;;;;;6.63;4.60;;;;;13.10;100752.00;;;;9620240;30;20209;-77
2021/03/26 17:24:33;;;;;;;8.33;4.63;;;;;13.10;100737.00;;;;9634473;30;20213;-77
2021/03/26 17:29:55;;;;;;;8.33;4.67;;;;;13.10;100729.00;;;;9633606;30;20927;-77
2021/03/26 17:35:26;;;;;;;5.90;4.40;;;;;13.10;100717.00;;;;9634265;30;20209;-77
2021/03/26 17:40:46;;;;;;;7.27;4.27;;;;;13.10;100709.00;;;;9634257;30;20723;-76
2021/03/26 17:46:08;;;;;;;7.47;4.17;;;;;13.00;100693.00;;;;9591600;30;20216;-76
2021/03/26 17:51:48;;;;;;;5.93;4.17;;;;;12.90;100688.00;;;;9591997;30;20312;-76
2021/03/26 17:57:24;;;;;;;6.13;3.97;;;;;12.80;100685.00;;;;9605306;30;20232;-76
2021/03/26 18:03:03;;;;;;;5.40;3.80;;;;;12.70;100669.00;;;;9620387;30;20209;-76
2021/03/26 18:08:30;;;;;;;10.70;5.50;;;;;12.60;100648.00;;;;9603495;30;20284;-77
2021/03/26 18:13:54;;;;;;;7.03;4.47;;;;;12.30;100642.00;;;;9570133;31;20840;-77
2021/03/26 18:19:16;;;;;;;6.43;3.97;;;;;12.20;100647.00;;;;9583291;30;20300;-77
2021/03/26 18:24:44;;;;;;;7.13;4.40;;;;;12.00;100645.00;;;;9568864;31;20213;-76
2021/03/26 18:30:22;;;;;;;6.50;4.10;;;;;12.00;100640.00;;;;9596886;30;20221;-76
2021/03/26 18:35:36;;;;;;;6.67;4.03;;;;;11.80;100649.00;;;;9582921;31;20266;-76
2021/03/26 18:41:05;;;;;;;8.00;4.27;;;;;11.80;100648.00;;;;9600825;30;20209;-76
2021/03/26 18:46:19;;;;;;;9.80;4.93;;;;;11.90;100646.00;;;;9603862;30;20219;-76
2021/03/26 18:51:27;;;;;;;5.57;4.67;;;;;11.90;100636.00;;;;9617574;30;20244;-77
2021/03/26 18:56:45;;;;;;;6.07;4.27;;;;;11.80;100626.00;;;;9602535;30;20733;-76
2021/03/26 19:02:16;;;;;;;6.00;3.57;;;;;11.60;100627.00;;;;9617902;30;20208;-76
2021/03/26 19:07:17;;;;;;;6.80;3.67;;;;;11.60;100621.00;;;;9597118;30;20720;-76
2021/03/26 19:12:25;;;;;;;4.40;3.67;;;;;11.60;100613.00;;;;9617264;30;20209;-77
2021/03/26 19:17:33;;;;;;;10.73;3.57;;;;;11.70;100606.00;;;;9603873;30;20267;-76
2021/03/26 19:22:50;;;;;;;4.37;3.20;;;;;11.80;100600.00;;;;9624976;30;20201;-77
2021/03/26 19:28:38;;;;;;;4.23;3.37;;;;;12.00;100605.00;;;;9624507;30;20307;-76
2021/03/26 19:34:12;;;;;;;5.03;2.80;;;;;12.00;100600.00;;;;9603302;30;20221;-77
2021/03/26 19:39:25;;;;;;;5.33;2.87;;;;;12.10;100581.00;;;;9624283;30;20209;-76
2021/03/26 19:44:44;;;;;;;5.67;2.90;;;;;12.20;100571.00;;;;9638642;30;20236;-77
2021/03/26 19:49:57;;;;;;;4.40;2.53;;;;;12.30;100565.00;;;;9637339;30;20225;-77
2021/03/26 19:55:14;;;;;;;6.67;2.87;;;;;12.30;100556.00;;;;9623361;30;20205;-76
2021/03/26 20:00:37;;;;;;;5.03;2.37;;;;;12.30;100562.00;;;;9608798;30;20237;-76
2021/03/26 20:05:50;;;;;;;6.23;2.60;;;;;12.30;100558.00;;;;9609107;30;20199;-76
2021/03/26 20:11:15;;;;;;;4.40;2.50;;;;;12.20;100554.00;;;;9637179;30;20626;-76
2021/03/26 20:16:18;;;;;;;8.23;2.57;;;;;12.30;100560.00;;;;9608494;30;20690;-77
2021/03/26 20:21:45;;;;;;;3.80;2.40;;;;;12.00;100659.00;;;;9622393;30;20201;-77
2021/03/26 20:27:11;;;;;;;3.83;1.63;;;;;10.10;100716.00;;;;9638721;30;20212;-77
2021/03/26 20:32:30;;;;;;;4.50;1.60;;;;;9.10;100752.00;;;;9621662;30;20212;-76
2021/03/26 20:37:42;;;;;;;0.83;0.70;;;;;8.40;100780.00;;;;9622940;30;20201;-77
2021/03/26 20:43:11;;;;;;;2.00;1.03;;;;;7.70;100800.00;;;;9608918;30;20217;-77
2021/03/26 20:48:39;;;;;;;2.20;0.90;;;;;7.40;100799.00;;;;9594708;30;20229;-77
2021/03/26 20:53:41;;;;;;;4.33;1.17;;;;;7.30;100825.00;;;;9593851;30;20680;-77
2021/03/26 20:58:44;;;;;;;2.17;1.20;;;;;7.30;100834.00;;;;9593366;30;20248;-77
2021/03/26 21:03:58;;;;;;;4.60;1.47;;;;;7.20;100845.00;;;;9587070;31;20653;-77
2021/03/26 21:09:18;;;;;;;2.03;1.20;;;;;7.00;100855.00;;;;9582362;30;20292;-77
2021/03/26 21:14:34;;;;;;;3.00;1.60;;;;;6.80;100868.00;;;;9606701;30;20209;-76
2021/03/26 21:19:50;;;;;;;3.37;1.70;;;;;6.80;100885.00;;;;9620424;30;20232;-76
2021/03/26 21:24:59;;;;;;;4.37;1.90;;;;;6.80;100887.00;;;;9592788;30;20216;-76
2021/03/26 21:30:14;;;;;;;3.97;1.50;;;;;6.70;100899.00;;;;9606220;30;20282;-75
2021/03/26 21:35:29;;;;;;;6.17;1.90;;;;;6.60;100905.00;;;;9592020;30;20268;-75
2021/03/26 21:40:44;;;;;;;3.03;1.63;;;;;6.50;100905.00;;;;9605205;30;20207;-76
2021/03/26 21:46:11;;;;;;;4.37;1.40;;;;;6.30;100915.00;;;;9605637;30;20208;-75
2021/03/26 21:51:15;;;;;;;4.67;1.30;;;;;6.00;100912.00;;;;9605650;30;20229;-75
2021/03/26 21:56:41;;;;;;;2.20;1.13;;;;;6.00;100900.00;;;;9619464;30;20562;-75
2021/03/26 22:01:54;;;;;;;2.87;1.30;;;;;5.80;100906.00;;;;9619819;30;20275;-74
2021/03/26 22:07:10;;;;;;;1.63;1.20;;;;;5.70;100914.00;;;;9633718;30;20201;-75
2021/03/26 22:12:32;;;;;;;1.73;1.17;;;;;5.60;100928.00;;;;9611529;30;20268;-75
2021/03/26 22:17:41;;;;;;;2.43;1.30;;;;;5.70;100946.00;;;;9612224;30;20209;-75
2021/03/26 22:22:50;;;;;;;3.90;1.37;;;;;5.70;100939.00;;;;9597156;30;20632;-75
2021/03/26 22:28:07;;;;;;;2.33;1.60;;;;;5.70;100928.00;;;;9583379;31;20635;-74
2021/03/26 22:33:21;;;;;;;3.47;1.60;;;;;5.70;100921.00;;;;9584067;31;20855;-74
2021/03/26 22:38:25;;;;;;;3.47;1.77;;;;;5.70;100904.00;;;;9583417;31;20201;-74
2021/03/26 22:43:28;;;;;;;3.43;1.27;;;;;5.70;100911.00;;;;9611222;30;20210;-74
2021/03/26 22:49:05;;;;;;;2.70;1.20;;;;;5.70;100917.00;;;;9580733;31;20259;-74
2021/03/26 22:54:31;;;;;;;4.03;1.43;;;;;5.70;100926.00;;;;9610239;30;20194;-75
2021/03/26 22:59:55;;;;;;;4.67;1.70;;;;;5.70;100934.00;;;;9582347;30;20245;-75
2021/03/26 23:05:08;;;;;;;2.93;1.50;;;;;5.70;100927.00;;;;9613188;30;20205;-75
2021/03/26 23:10:13;;;;;;;3.00;1.23;;;;;5.70;100934.00;;;;9603720;30;20225;-75
2021/03/26 23:15:21;;;;;;;5.20;1.67;;;;;5.70;100936.00;;;;9575903;30;20756;-75
2021/03/26 23:20:26;;;;;;;3.50;1.60;;;;;5.70;100932.00;;;;9589180;30;20264;-75
2021/03/26 23:25:32;;;;;;;5.93;1.93;;;;;5.70;100932.00;;;;9603296;30;20220;-75
2021/03/26 23:30:46;;;;;;;2.73;1.50;;;;;5.70;100947.00;;;;9602756;30;20225;-75
2021/03/26 23:35:58;;;;;;;5.20;2.00;;;;;5.60;100931.00;;;;9602540;30;20282;-75
2021/03/26 23:41:07;;;;;;;7.87;2.20;;;;;5.70;100934.00;;;;9602876;30;20201;-75
2021/03/26 23:46:35;;;;;;;5.20;1.30;;;;;5.60;100935.00;;;;9603162;30;20205;-75
2021/03/26 23:51:48;;;;;;;3.97;1.37;;;;;5.70;100922.00;;;;9616319;30;20225;-75
2021/03/26 23:56:54;;;;;;;4.23;1.87;;;;;5.70;100937.00;;;;9602583;30;20642;-76
